Time;durP1;ratioP1;P1;durP2;ratioP2;P2;SDS_P1;SDS_P2;PMS_P1;PMS_P2;Temp;Humidity;BMP_temperature;BMP_pressure;BME280_temperature;BME280_humidity;BME280_pressure;Samples;Min_cycle;Max_cycle;Signal;HPM_P1;HPM_P2
2021/09/08 00:00:13;;;;;;;24.27;15.40;;;;;16.70;101370.00;;;;12890237;22;20208;-80
2021/09/08 00:05:14;;;;;;;24.03;17.37;;;;;16.60;101349.00;;;;12890208;22;20169;-80
2021/09/08 00:10:15;;;;;;;25.13;17.60;;;;;16.50;101341.00;;;;12910313;22;20304;-80
2021/09/08 00:15:17;;;;;;;25.87;16.67;;;;;16.40;101324.00;;;;12890295;22;20172;-80
2021/09/08 00:20:18;;;;;;;23.60;16.53;;;;;16.30;101328.00;;;;12915122;22;20670;-79
2021/09/08 00:25:19;;;;;;;26.07;17.70;;;;;16.20;101324.00;;;;12936586;22;20188;-79
2021/09/08 00:30:20;;;;;;;25.73;16.93;;;;;16.20;101314.00;;;;12866255;22;20618;-79
2021/09/08 00:35:23;;;;;;;23.50;17.67;;;;;16.30;101311.00;;;;12891602;22;20174;-80
2021/09/08 00:40:25;;;;;;;23.77;16.73;;;;;16.40;101327.00;;;;12891645;22;20178;-80
2021/09/08 00:45:27;;;;;;;22.53;16.40;;;;;16.40;101322.00;;;;12911951;22;20954;-80
2021/09/08 00:50:29;;;;;;;24.63;16.87;;;;;16.30;101322.00;;;;12842260;22;20188;-79
2021/09/08 00:55:32;;;;;;;24.63;16.63;;;;;16.20;101319.00;;;;12868126;22;20724;-80
2021/09/08 01:00:35;;;;;;;21.73;16.07;;;;;16.10;101321.00;;;;12892331;22;20170;-79
2021/09/08 01:05:40;;;;;;;23.60;17.73;;;;;16.00;101324.00;;;;12890668;22;20189;-79
2021/09/08 01:10:42;;;;;;;23.37;16.73;;;;;15.90;101322.00;;;;12916466;22;20169;-79
2021/09/08 01:16:01;;;;;;;25.70;17.13;;;;;15.80;101315.00;;;;12891397;22;20249;-79
2021/09/08 01:21:03;;;;;;;23.57;17.93;;;;;15.70;101306.00;;;;12918540;22;20173;-80
2021/09/08 01:26:05;;;;;;;23.63;17.77;;;;;15.60;101306.00;;;;12867988;22;20581;-79
2021/09/08 01:31:07;;;;;;;23.47;16.73;;;;;15.50;101300.00;;;;12894266;22;20236;-80
2021/09/08 01:36:08;;;;;;;24.43;17.93;;;;;15.50;101293.00;;;;12869281;22;20207;-80
2021/09/08 01:41:09;;;;;;;25.03;18.03;;;;;15.40;101296.00;;;;12893476;22;20186;-80
2021/09/08 01:46:20;;;;;;;23.40;17.97;;;;;15.30;101295.00;;;;12891595;22;20280;-79
2021/09/08 01:51:21;;;;;;;24.30;17.20;;;;;15.30;101290.00;;;;12869295;22;20174;-80
2021/09/08 01:56:22;;;;;;;26.23;18.60;;;;;15.20;101282.00;;;;12870408;22;20805;-79
2021/09/08 02:01:25;;;;;;;26.07;18.07;;;;;15.20;101286.00;;;;12894174;22;20252;-79
2021/09/08 02:06:28;;;;;;;27.67;20.67;;;;;15.20;101286.00;;;;12892592;22;20189;-79
2021/09/08 02:11:29;;;;;;;31.43;20.07;;;;;15.10;101289.00;;;;12939335;22;20216;-79
2021/09/08 02:16:32;;;;;;;25.63;18.07;;;;;15.00;101286.00;;;;12870017;22;20255;-80
2021/09/08 02:21:33;;;;;;;26.70;19.73;;;;;15.00;101294.00;;;;12894029;22;20172;-79
2021/09/08 02:26:35;;;;;;;28.53;20.57;;;;;14.90;101279.00;;;;12939608;22;20188;-80
2021/09/08 02:31:36;;;;;;;28.20;19.27;;;;;14.90;101284.00;;;;12843927;22;20180;-79
2021/09/08 02:36:38;;;;;;;27.13;19.83;;;;;14.80;101277.00;;;;12868661;22;20181;-79
2021/09/08 02:41:39;;;;;;;28.40;21.10;;;;;14.70;101274.00;;;;12867595;22;20618;-79
2021/09/08 02:46:40;;;;;;;27.43;19.17;;;;;14.70;101270.00;;;;12892992;22;20200;-80
2021/09/08 02:51:43;;;;;;;30.20;20.43;;;;;14.70;101270.00;;;;12868922;22;20289;-80
2021/09/08 02:56:44;;;;;;;30.63;20.93;;;;;14.60;101266.00;;;;12893503;22;20169;-79
2021/09/08 03:01:45;;;;;;;34.93;22.50;;;;;14.60;101261.00;;;;12892778;22;20180;-79
2021/09/08 03:06:48;;;;;;;33.57;22.67;;;;;14.60;101279.00;;;;12868861;22;20652;-79
2021/09/08 03:11:50;;;;;;;32.03;22.27;;;;;14.60;101269.00;;;;12941203;22;20173;-81
2021/09/08 03:16:51;;;;;;;31.37;21.70;;;;;14.60;101281.00;;;;12871242;22;20284;-80
2021/09/08 03:21:53;;;;;;;29.53;22.07;;;;;14.50;101268.00;;;;12896102;22;20189;-80
2021/09/08 03:26:55;;;;;;;30.27;22.23;;;;;14.50;101270.00;;;;12896377;22;20193;-80
2021/09/08 03:31:56;;;;;;;35.20;23.03;;;;;14.40;101270.00;;;;12871006;22;20173;-80
2021/09/08 03:36:57;;;;;;;33.33;23.00;;;;;14.30;101271.00;;;;12871059;22;20174;-80
2021/09/08 03:41:59;;;;;;;34.10;23.20;;;;;14.30;101263.00;;;;12868685;22;20232;-80
2021/09/08 03:47:02;;;;;;;33.57;23.00;;;;;14.20;101257.00;;;;12940488;22;20210;-80
2021/09/08 03:52:03;;;;;;;38.57;23.60;;;;;14.20;101248.00;;;;12893774;22;20178;-80
2021/09/08 03:57:06;;;;;;;38.67;24.03;;;;;14.10;101237.00;;;;12894441;22;20173;-80
2021/09/08 04:02:07;;;;;;;37.17;23.13;;;;;14.00;101238.00;;;;12940826;22;20180;-80
2021/09/08 04:07:10;;;;;;;35.13;22.43;;;;;14.00;101226.00;;;;12939416;22;20248;-80
2021/09/08 04:12:11;;;;;;;34.20;23.10;;;;;14.00;101224.00;;;;12844006;22;20185;-79
2021/09/08 04:17:12;;;;;;;39.80;24.87;;;;;14.00;101231.00;;;;12939565;22;20223;-80
2021/09/08 04:22:13;;;;;;;35.03;22.70;;;;;14.00;101230.00;;;;12915922;22;20601;-79
2021/09/08 04:27:14;;;;;;;36.70;24.13;;;;;13.90;101233.00;;;;12894430;22;20193;-79
2021/09/08 04:32:16;;;;;;;32.43;22.90;;;;;13.90;101233.00;;;;12938841;22;20248;-80
2021/09/08 04:37:17;;;;;;;46.50;28.80;;;;;13.90;101226.00;;;;12867735;22;20183;-79
2021/09/08 04:42:18;;;;;;;39.67;25.47;;;;;14.00;101229.00;;;;12938489;22;20169;-80
2021/09/08 04:47:19;;;;;;;40.03;26.00;;;;;13.90;101226.00;;;;12886283;22;20201;-80
2021/09/08 04:52:21;;;;;;;40.80;26.17;;;;;13.90;101218.00;;;;12910935;22;20195;-80
2021/09/08 04:57:22;;;;;;;42.33;26.50;;;;;13.90;101232.00;;;;12888872;22;20731;-80
2021/09/08 05:02:23;;;;;;;41.40;25.50;;;;;13.90;101220.00;;;;12864286;22;20180;-79
2021/09/08 05:07:24;;;;;;;39.50;26.83;;;;;13.80;101217.00;;;;12889083;22;20196;-80
2021/09/08 05:12:26;;;;;;;40.27;25.30;;;;;13.90;101224.00;;;;12888332;22;20177;-80
2021/09/08 05:17:28;;;;;;;40.57;27.43;;;;;13.90;101226.00;;;;12887458;22;20197;-79
2021/09/08 05:22:29;;;;;;;44.13;27.47;;;;;13.90;101223.00;;;;12890599;22;20180;-80
2021/09/08 05:27:30;;;;;;;44.90;27.90;;;;;14.00;101220.00;;;;12889785;22;20201;-80
2021/09/08 05:32:31;;;;;;;44.63;27.17;;;;;14.20;101217.00;;;;12841676;22;20816;-80
2021/09/08 05:37:32;;;;;;;39.17;25.83;;;;;14.30;101219.00;;;;12889713;22;20169;-80
2021/09/08 05:42:34;;;;;;;46.10;27.33;;;;;14.50;101226.00;;;;12866148;22;20169;-79
2021/09/08 05:47:35;;;;;;;42.20;27.27;;;;;14.80;101227.00;;;;12936815;22;20192;-80
2021/09/08 05:52:37;;;;;;;39.33;25.23;;;;;15.10;101250.00;;;;12910261;22;20216;-79
2021/09/08 05:57:38;;;;;;;41.20;25.23;;;;;15.50;101262.00;;;;12888999;22;20256;-80
2021/09/08 06:02:39;;;;;;;37.63;24.63;;;;;15.80;101262.00;;;;12858836;22;20177;-80
2021/09/08 06:07:41;;;;;;;38.73;24.33;;;;;16.10;101265.00;;;;12866754;22;20197;-80
2021/09/08 06:12:44;;;;;;;35.17;23.73;;;;;16.30;101254.00;;;;12868343;22;20184;-78
2021/09/08 06:17:46;;;;;;;34.47;22.33;;;;;16.50;101243.00;;;;12892295;22;20212;-79
2021/09/08 06:22:47;;;;;;;30.03;21.67;;;;;16.80;101247.00;;;;12891095;22;20169;-79
2021/09/08 06:27:48;;;;;;;33.15;20.65;;;;;17.10;101252.00;;;;12937487;22;20235;-79
2021/09/08 06:32:50;;;;;;;24.23;18.93;;;;;17.70;101257.00;;;;12865835;22;20173;-79
2021/09/08 06:37:51;;;;;;;25.80;19.05;;;;;18.20;101259.00;;;;12865941;22;20181;-79
2021/09/08 06:42:53;;;;;;;25.25;18.42;;;;;18.50;101265.00;;;;12891458;22;20174;-78
2021/09/08 06:47:56;;;;;;;26.48;18.83;;;;;18.80;101268.00;;;;12888848;22;20284;-79
2021/09/08 06:52:57;;;;;;;23.23;17.15;;;;;19.10;101243.00;;;;12889276;22;20169;-79
2021/09/08 06:57:59;;;;;;;30.88;17.80;;;;;19.60;101251.00;;;;12884853;22;20173;-78
2021/09/08 07:03:01;;;;;;;25.52;17.20;;;;;19.80;101233.00;;;;12855713;22;20182;-78
2021/09/08 07:08:05;;;;;;;21.27;15.23;;;;;19.80;101225.00;;;;12861715;22;20200;-80
2021/09/08 07:13:06;;;;;;;21.20;15.77;;;;;20.00;101222.00;;;;12863948;22;20197;-79
2021/09/08 07:18:08;;;;;;;22.77;15.32;;;;;20.50;101204.00;;;;12864258;22;20330;-79
2021/09/08 07:23:09;;;;;;;18.88;15.38;;;;;20.80;101208.00;;;;12888097;22;20261;-79
2021/09/08 07:28:10;;;;;;;26.73;16.08;;;;;20.80;101204.00;;;;12891675;22;20189;-79
2021/09/08 07:33:11;;;;;;;22.02;15.57;;;;;20.90;101213.00;;;;12889424;22;20197;-79
2021/09/08 07:38:12;;;;;;;21.83;15.50;;;;;21.20;101213.00;;;;12868088;22;20180;-79
2021/09/08 07:43:14;;;;;;;22.45;14.82;;;;;21.40;101202.00;;;;12938757;22;20180;-80
2021/09/08 07:48:20;;;;;;;22.77;16.55;;;;;21.60;101193.00;;;;12867656;22;20201;-79
2021/09/08 07:53:22;;;;;;;22.88;16.00;;;;;21.70;101192.00;;;;12936379;22;20170;-78
2021/09/08 07:58:23;;;;;;;22.45;15.13;;;;;22.00;101186.00;;;;12914999;22;20212;-78
2021/09/08 08:03:24;;;;;;;18.85;14.95;;;;;22.30;101187.00;;;;12926451;22;20173;-79
2021/09/08 08:08:25;;;;;;;21.50;15.48;;;;;22.60;101180.00;;;;12907190;22;20209;-79
2021/09/08 08:13:28;;;;;;;17.35;14.13;;;;;23.00;101182.00;;;;12885498;22;20224;-79
2021/09/08 08:18:29;;;;;;;22.10;15.07;;;;;23.30;101175.00;;;;12861761;22;20193;-79
2021/09/08 08:23:30;;;;;;;17.92;14.73;;;;;23.80;101162.00;;;;12911834;22;20181;-79
2021/09/08 08:28:32;;;;;;;16.92;13.48;;;;;24.30;101158.00;;;;12883223;22;20495;-79
2021/09/08 08:33:33;;;;;;;16.92;13.32;;;;;24.80;101159.00;;;;12933847;22;20165;-79
2021/09/08 08:38:34;;;;;;;15.20;12.10;;;;;25.30;101144.00;;;;12903488;22;20537;-79
2021/09/08 08:43:37;;;;;;;14.93;10.63;;;;;25.80;101151.00;;;;12859611;22;20173;-79
2021/09/08 08:48:39;;;;;;;15.30;11.55;;;;;26.20;101143.00;;;;12933557;22;20212;-79
2021/09/08 08:53:41;;;;;;;13.75;11.23;;;;;26.50;101145.00;;;;12888578;22;20556;-79
2021/09/08 08:58:42;;;;;;;14.38;10.48;;;;;26.90;101140.00;;;;12866260;22;20181;-79
2021/09/08 09:03:57;;;;;;;11.15;10.02;;;;;27.20;101140.00;;;;12890594;22;20223;-79
2021/09/08 09:09:11;;;;;;;12.40;10.32;;;;;27.60;101134.00;;;;12865389;22;20655;-79
2021/09/08 09:14:16;;;;;;;12.75;10.05;;;;;28.00;101126.00;;;;12909938;22;20260;-79
2021/09/08 09:19:17;;;;;;;13.73;9.82;;;;;28.10;101125.00;;;;12863256;22;20193;-79
2021/09/08 09:24:19;;;;;;;16.75;9.43;;;;;28.40;101115.00;;;;12864051;22;20596;-79
2021/09/08 09:29:20;;;;;;;11.35;8.40;;;;;28.80;101111.00;;;;12888198;22;20201;-79
2021/09/08 09:34:23;;;;;;;10.32;9.30;;;;;29.10;101106.00;;;;12863418;22;20613;-79
2021/09/08 09:39:29;;;;;;;9.95;8.80;;;;;29.20;101101.00;;;;12911645;22;20180;-79
2021/09/08 09:44:31;;;;;;;15.32;9.32;;;;;29.40;101101.00;;;;12938389;22;20173;-79
2021/09/08 09:49:34;;;;;;;10.57;8.35;;;;;29.60;101100.00;;;;12866757;23;20276;-79
2021/09/08 09:54:36;;;;;;;9.40;8.30;;;;;29.80;101084.00;;;;12889723;22;20170;-79
2021/09/08 09:59:37;;;;;;;11.15;8.57;;;;;29.80;101080.00;;;;12917170;22;21068;-79
2021/09/08 10:04:39;;;;;;;11.85;8.32;;;;;29.90;101079.00;;;;12938589;22;20613;-79
2021/09/08 10:09:40;;;;;;;10.52;8.98;;;;;30.10;101081.00;;;;12863412;22;20204;-78
2021/09/08 10:14:42;;;;;;;9.20;7.90;;;;;30.10;101067.00;;;;12935680;22;20666;-80
2021/09/08 10:19:43;;;;;;;11.82;8.50;;;;;30.30;101064.00;;;;12865029;22;20194;-79
2021/09/08 10:24:46;;;;;;;10.73;9.40;;;;;30.20;101061.00;;;;12891751;22;20181;-79
2021/09/08 10:29:50;;;;;;;12.35;8.88;;;;;30.20;101055.00;;;;12890629;22;20905;-80
2021/09/08 10:34:53;;;;;;;10.30;8.52;;;;;30.40;101049.00;;;;12895731;22;20166;-80
2021/09/08 10:39:55;;;;;;;9.32;8.02;;;;;30.80;101038.00;;;;12892829;22;20173;-80
2021/09/08 10:44:56;;;;;;;13.52;9.65;;;;;31.30;101033.00;;;;12867762;22;20184;-80
2021/09/08 10:49:57;;;;;;;9.85;8.40;;;;;31.40;101020.00;;;;12867995;22;20197;-80
2021/09/08 10:54:58;;;;;;;12.40;8.55;;;;;31.50;101018.00;;;;12858380;22;20616;-80
2021/09/08 11:00:01;;;;;;;12.63;9.32;;;;;31.70;101007.00;;;;12865760;22;20181;-80
2021/09/08 11:05:03;;;;;;;12.23;8.85;;;;;31.80;100996.00;;;;12890645;22;20193;-80
2021/09/08 11:10:05;;;;;;;10.23;8.35;;;;;31.70;100988.00;;;;12891998;22;20442;-80
2021/09/08 11:15:07;;;;;;;8.85;7.78;;;;;31.50;100985.00;;;;12890137;22;20227;-80
2021/09/08 11:20:09;;;;;;;12.95;9.00;;;;;31.70;100978.00;;;;12887933;22;20193;-80
2021/09/08 11:25:12;;;;;;;11.55;7.72;;;;;31.70;100983.00;;;;12915866;22;20177;-80
2021/09/08 11:30:13;;;;;;;9.75;8.75;;;;;31.90;100971.00;;;;12888880;22;20204;-80
2021/09/08 11:35:14;;;;;;;9.80;8.23;;;;;32.10;100968.00;;;;12886048;22;20256;-79
2021/09/08 11:40:16;;;;;;;10.75;7.18;;;;;32.40;100970.00;;;;12839188;22;20178;-79
2021/09/08 11:45:28;;;;;;;8.75;6.85;;;;;32.30;100962.00;;;;12863320;22;20193;-81
2021/09/08 11:50:30;;;;;;;7.72;6.70;;;;;32.30;100953.00;;;;12892151;22;20200;-80
2021/09/08 11:55:36;;;;;;;12.18;8.00;;;;;32.60;100951.00;;;;12938802;22;20196;-79
2021/09/08 12:00:53;;;;;;;10.57;8.00;;;;;32.30;100948.00;;;;12838485;22;20170;-80
2021/09/08 12:06:10;;;;;;;11.45;9.25;;;;;32.30;100945.00;;;;12937499;22;20172;-79
2021/09/08 12:11:12;;;;;;;10.07;8.15;;;;;32.30;100933.00;;;;12890881;22;20177;-79
2021/09/08 12:16:36;;;;;;;10.05;8.32;;;;;32.30;100929.00;;;;12887245;22;20629;-80
2021/09/08 12:21:38;;;;;;;9.25;6.95;;;;;32.10;100923.00;;;;12936534;22;20217;-80
2021/09/08 12:26:42;;;;;;;8.48;6.50;;;;;32.40;100916.00;;;;12889471;22;20240;-80
2021/09/08 12:31:52;;;;;;;7.25;6.10;;;;;32.40;100910.00;;;;12890927;22;20648;-81
2021/09/08 12:36:53;;;;;;;8.20;6.28;;;;;32.40;100904.00;;;;12918621;22;20170;-81
2021/09/08 12:42:01;;;;;;;11.55;7.35;;;;;32.50;100909.00;;;;12891350;22;20173;-80
2021/09/08 12:47:12;;;;;;;7.75;6.78;;;;;32.30;100894.00;;;;12892753;22;20196;-81
2021/09/08 12:52:21;;;;;;;7.80;7.00;;;;;32.20;100891.00;;;;12867854;22;20247;-80
2021/09/08 12:57:32;;;;;;;8.38;6.68;;;;;32.20;100884.00;;;;12870031;22;20200;-81
2021/09/08 13:02:34;;;;;;;9.68;6.22;;;;;32.40;100878.00;;;;12866546;22;20188;-81
2021/09/08 13:07:36;;;;;;;7.95;5.90;;;;;32.20;100872.00;;;;12865847;23;20608;-81
2021/09/08 13:12:37;;;;;;;6.95;5.47;;;;;32.40;100866.00;;;;12867717;22;20165;-80
2021/09/08 13:17:38;;;;;;;8.38;5.88;;;;;32.40;100857.00;;;;12841219;22;20711;-81
2021/09/08 13:22:39;;;;;;;6.65;5.97;;;;;32.30;100855.00;;;;12891286;22;20169;-80
2021/09/08 13:27:41;;;;;;;6.18;5.18;;;;;32.20;100838.00;;;;12864448;22;20266;-81
2021/09/08 13:32:42;;;;;;;8.40;5.63;;;;;32.20;100848.00;;;;12890474;22;20256;-81
2021/09/08 13:37:43;;;;;;;6.57;5.82;;;;;32.20;100836.00;;;;12889713;22;20268;-81
2021/09/08 13:42:44;;;;;;;6.25;5.57;;;;;32.20;100828.00;;;;12863883;22;20192;-81
2021/09/08 13:47:45;;;;;;;6.40;5.72;;;;;32.30;100831.00;;;;12842792;22;20755;-81
2021/09/08 13:52:46;;;;;;;6.03;5.47;;;;;32.10;100818.00;;;;12866971;22;20537;-81
2021/09/08 13:57:48;;;;;;;5.93;5.43;;;;;31.90;100807.00;;;;12843574;22;20173;-82
2021/09/08 14:02:49;;;;;;;6.20;5.43;;;;;32.10;100802.00;;;;12938431;22;20170;-82
2021/09/08 14:07:51;;;;;;;5.97;5.38;;;;;32.20;100797.00;;;;12868507;22;20276;-82
2021/09/08 14:12:52;;;;;;;8.13;5.18;;;;;32.50;100794.00;;;;12936924;22;20193;-81
2021/09/08 14:17:54;;;;;;;5.55;5.05;;;;;32.90;100779.00;;;;12868377;22;20248;-81
2021/09/08 14:22:56;;;;;;;5.30;4.80;;;;;34.10;100769.00;;;;12891161;22;20259;-80
2021/09/08 14:27:57;;;;;;;6.00;5.32;;;;;35.70;100752.00;;;;12894584;22;20280;-81
2021/09/08 14:32:59;;;;;;;5.65;4.95;;;;;35.10;100763.00;;;;12848844;22;20241;-82
2021/09/08 14:38:02;;;;;;;6.35;4.80;;;;;31.80;100764.00;;;;12866215;22;20169;-81
2021/09/08 14:43:03;;;;;;;5.65;4.85;;;;;32.60;100754.00;;;;12863727;23;20209;-81
2021/09/08 14:48:06;;;;;;;6.68;5.03;;;;;31.70;100742.00;;;;12892026;22;20197;-81
2021/09/08 14:53:08;;;;;;;8.95;5.13;;;;;30.90;100743.00;;;;12867736;22;20857;-81
2021/09/08 14:58:11;;;;;;;4.82;4.40;;;;;31.40;100723.00;;;;12872432;22;20178;-81
2021/09/08 15:03:12;;;;;;;9.85;4.88;;;;;31.50;100731.00;;;;12870085;22;20232;-82
2021/09/08 15:08:18;;;;;;;5.75;4.80;;;;;31.80;100727.00;;;;12863878;22;20204;-79
2021/09/08 15:13:20;;;;;;;4.80;4.40;;;;;30.90;100736.00;;;;12858240;22;20177;-78
2021/09/08 15:18:21;;;;;;;5.40;4.90;;;;;29.70;100719.00;;;;12858109;22;20197;-78
2021/09/08 15:23:22;;;;;;;5.68;4.75;;;;;29.40;100728.00;;;;12854108;22;20548;-78
2021/09/08 15:28:24;;;;;;;6.82;5.22;;;;;28.90;100721.00;;;;12855272;22;20548;-79
2021/09/08 15:33:25;;;;;;;6.38;4.85;;;;;28.60;100708.00;;;;12884316;22;20174;-78
2021/09/08 15:38:27;;;;;;;5.80;4.70;;;;;28.50;100705.00;;;;12860034;22;20176;-78
2021/09/08 15:43:28;;;;;;;6.45;4.95;;;;;28.30;100694.00;;;;12858247;22;20508;-78
2021/09/08 15:48:29;;;;;;;5.00;4.50;;;;;28.10;100699.00;;;;12857288;22;20201;-78
2021/09/08 15:53:31;;;;;;;7.30;5.68;;;;;27.90;100697.00;;;;12858069;22;20593;-78
2021/09/08 15:58:33;;;;;;;6.30;5.53;;;;;27.80;100696.00;;;;12858727;22;20173;-77
2021/09/08 16:03:34;;;;;;;9.88;5.45;;;;;27.70;100687.00;;;;12880999;22;20180;-78
2021/09/08 16:08:38;;;;;;;6.65;5.15;;;;;27.60;100679.00;;;;12882755;22;20220;-78
2021/09/08 16:13:39;;;;;;;5.85;5.35;;;;;27.50;100673.00;;;;12857526;22;20173;-78
2021/09/08 16:18:41;;;;;;;5.80;5.28;;;;;27.40;100675.00;;;;12857324;22;20193;-78
2021/09/08 16:23:43;;;;;;;8.55;5.07;;;;;27.30;100667.00;;;;12882308;22;20173;-78
2021/09/08 16:28:48;;;;;;;9.80;6.22;;;;;27.20;100659.00;;;;12858482;23;20224;-77
2021/09/08 16:33:49;;;;;;;8.35;5.07;;;;;27.10;100662.00;;;;12882004;22;20166;-77
2021/09/08 16:38:50;;;;;;;5.95;5.05;;;;;27.00;100657.00;;;;12881471;23;20178;-78
2021/09/08 16:43:53;;;;;;;9.13;5.13;;;;;26.90;100665.00;;;;12883475;22;20173;-78
2021/09/08 16:48:54;;;;;;;8.50;5.32;;;;;26.70;100651.00;;;;12882502;22;20197;-78
2021/09/08 16:53:55;;;;;;;6.75;5.07;;;;;26.60;100654.00;;;;12929257;22;20166;-78
2021/09/08 16:58:57;;;;;;;7.05;5.43;;;;;26.50;100652.00;;;;12882108;22;20173;-77
2021/09/08 17:03:58;;;;;;;7.10;4.78;;;;;26.30;100647.00;;;;12928113;22;20161;-78
2021/09/08 17:09:03;;;;;;;9.23;4.60;;;;;26.10;100650.00;;;;12879836;22;20200;-78
2021/09/08 17:14:04;;;;;;;7.40;5.20;;;;;25.90;100643.00;;;;12856474;22;20223;-78
2021/09/08 17:19:06;;;;;;;5.60;5.00;;;;;25.70;100651.00;;;;12881168;22;20189;-77
2021/09/08 17:24:07;;;;;;;8.75;5.40;;;;;25.50;100641.00;;;;12858458;22;20173;-77
2021/09/08 17:29:08;;;;;;;10.57;4.93;;;;;25.20;100642.00;;;;12856691;22;20194;-77
2021/09/08 17:34:10;;;;;;;7.65;5.40;;;;;25.00;100642.00;;;;12856082;23;20172;-77
2021/09/08 17:39:12;;;;;;;10.00;5.97;;;;;24.70;100643.00;;;;12927366;22;20173;-77
2021/09/08 17:44:14;;;;;;;7.68;5.55;;;;;24.50;100644.00;;;;12882275;22;20249;-77
2021/09/08 17:49:15;;;;;;;12.27;6.45;;;;;24.30;100641.00;;;;12879785;22;20228;-77
2021/09/08 17:54:16;;;;;;;15.77;12.95;;;;;24.10;100644.00;;;;12905760;22;20204;-77
2021/09/08 17:59:18;;;;;;;22.85;16.73;;;;;23.90;100637.00;;;;12926510;22;20166;-77
2021/09/08 18:04:20;;;;;;;8.18;7.28;;;;;23.60;100633.00;;;;12857178;22;20688;-77
2021/09/08 18:09:22;;;;;;;7.63;5.70;;;;;23.30;100640.00;;;;12926568;22;20224;-77
2021/09/08 18:14:26;;;;;;;12.00;5.97;;;;;23.00;100649.00;;;;12880230;22;20232;-76
2021/09/08 18:19:28;;;;;;;7.18;5.65;;;;;22.60;100641.00;;;;12856232;23;20224;-77
2021/09/08 18:24:30;;;;;;;8.80;5.43;;;;;22.30;100645.00;;;;12855560;22;20177;-77
2021/09/08 18:29:34;;;;;;;12.50;6.10;;;;;22.00;100646.00;;;;12859127;22;20944;-77
2021/09/08 18:34:35;;;;;;;9.48;5.82;;;;;21.80;100644.00;;;;12854517;22;20215;-76
2021/09/08 18:39:36;;;;;;;8.00;5.70;;;;;21.60;100652.00;;;;12855736;22;20169;-76
2021/09/08 18:44:40;;;;;;;7.78;6.70;;;;;21.40;100647.00;;;;12832470;22;20177;-77
2021/09/08 18:49:42;;;;;;;11.15;6.90;;;;;21.20;100652.00;;;;12881593;22;20201;-76
2021/09/08 18:54:43;;;;;;;9.45;6.97;;;;;21.00;100648.00;;;;12855539;22;20220;-76
2021/09/08 18:59:44;;;;;;;7.20;6.35;;;;;20.80;100646.00;;;;12929581;22;20537;-77
2021/09/08 19:04:45;;;;;;;11.60;6.65;;;;;20.60;100646.00;;;;12883619;22;20243;-76
2021/09/08 19:09:47;;;;;;;12.45;7.35;;;;;20.40;100641.00;;;;12927491;22;20696;-77
2021/09/08 19:14:48;;;;;;;13.65;8.20;;;;;20.30;100636.00;;;;12834791;22;20181;-76
2021/09/08 19:19:49;;;;;;;10.35;7.20;;;;;20.10;100626.00;;;;12904134;22;20193;-77
2021/09/08 19:24:50;;;;;;;12.70;7.50;;;;;19.90;100628.00;;;;12857611;22;20809;-76
2021/09/08 19:29:52;;;;;;;11.02;6.70;;;;;19.80;100621.00;;;;12930119;22;20990;-76
2021/09/08 19:34:53;;;;;;;12.32;7.32;;;;;19.70;100625.00;;;;12882298;22;20220;-76
2021/09/08 19:39:54;;;;;;;11.18;8.57;;;;;19.50;100624.00;;;;12908507;22;20228;-76
2021/09/08 19:44:55;;;;;;;10.35;7.35;;;;;19.40;100624.00;;;;12883451;22;20177;-76
2021/09/08 19:49:56;;;;;;;10.07;7.15;;;;;19.30;100623.00;;;;12883497;22;20185;-76
2021/09/08 19:54:58;;;;;;;8.95;7.75;;;;;19.20;100627.00;;;;12884258;22;20176;-76
2021/09/08 19:59:59;;;;;;;15.35;7.95;;;;;19.20;100623.00;;;;12885344;22;20610;-77
2021/09/08 20:05:02;;;;;;;11.35;8.10;;;;;19.10;100630.00;;;;12851465;22;20169;-76
2021/09/08 20:10:05;;;;;;;12.43;8.77;;;;;19.00;100628.00;;;;12875548;22;20901;-77
2021/09/08 20:15:10;;;;;;;10.50;8.35;;;;;18.80;100622.00;;;;12880130;22;20637;-77
2021/09/08 20:20:12;;;;;;;9.43;7.70;;;;;18.80;100630.00;;;;12876647;22;20197;-76
2021/09/08 20:25:14;;;;;;;9.55;8.15;;;;;18.80;100626.00;;;;12878123;22;20170;-77
2021/09/08 20:30:15;;;;;;;14.23;8.23;;;;;18.90;100632.00;;;;12902915;22;20197;-76
2021/09/08 20:35:16;;;;;;;16.08;8.50;;;;;18.90;100623.00;;;;12879372;22;20173;-76
2021/09/08 20:40:17;;;;;;;9.52;8.15;;;;;18.90;100626.00;;;;12878000;22;20196;-76
2021/09/08 20:45:19;;;;;;;13.60;9.38;;;;;18.90;100620.00;;;;12926318;22;20170;-77
2021/09/08 20:50:20;;;;;;;11.77;8.63;;;;;18.80;100624.00;;;;12909840;22;20556;-76
2021/09/08 20:55:21;;;;;;;11.02;8.85;;;;;18.70;100625.00;;;;12830819;22;20169;-77
2021/09/08 21:00:22;;;;;;;10.68;8.80;;;;;18.60;100612.00;;;;12926979;22;20169;-77
2021/09/08 21:05:23;;;;;;;13.68;9.02;;;;;18.50;100615.00;;;;12904752;22;20173;-77
2021/09/08 21:10:25;;;;;;;12.00;9.48;;;;;18.40;100608.00;;;;12880074;22;20201;-76
2021/09/08 21:15:27;;;;;;;11.48;8.95;;;;;18.30;100602.00;;;;12924460;22;20165;-76
2021/09/08 21:20:28;;;;;;;14.43;9.80;;;;;18.40;100601.00;;;;12903862;22;20184;-77
2021/09/08 21:25:29;;;;;;;12.65;9.48;;;;;18.40;100606.00;;;;12878664;22;20173;-77
2021/09/08 21:30:32;;;;;;;14.10;8.65;;;;;18.40;100601.00;;;;12884572;22;20197;-78
2021/09/08 21:35:36;;;;;;;12.30;9.15;;;;;18.50;100600.00;;;;12888167;22;20201;-78
2021/09/08 21:40:37;;;;;;;13.15;9.15;;;;;18.40;100609.00;;;;12915632;22;20184;-77
2021/09/08 21:45:39;;;;;;;15.10;9.82;;;;;18.30;100616.00;;;;12891134;22;20241;-78
2021/09/08 21:50:40;;;;;;;13.63;9.70;;;;;18.30;100616.00;;;;12916291;22;20193;-77
2021/09/08 21:55:42;;;;;;;13.18;9.38;;;;;18.20;100620.00;;;;12867152;22;20179;-77
2021/09/08 22:00:43;;;;;;;13.15;9.60;;;;;18.20;100630.00;;;;12937264;22;20165;-77
2021/09/08 22:05:45;;;;;;;14.10;10.20;;;;;18.20;100631.00;;;;12939370;22;20161;-77
2021/09/08 22:10:46;;;;;;;11.35;9.32;;;;;18.10;100630.00;;;;12867176;22;20687;-78
2021/09/08 22:15:47;;;;;;;15.05;11.00;;;;;17.90;100623.00;;;;12892326;22;20189;-78
2021/09/08 22:20:50;;;;;;;16.15;10.32;;;;;17.70;100608.00;;;;12891525;22;20181;-77
2021/09/08 22:25:55;;;;;;;15.30;11.10;;;;;17.50;100594.00;;;;12869221;22;20257;-77
2021/09/08 22:30:57;;;;;;;14.57;10.68;;;;;17.50;100592.00;;;;12867792;22;20213;-77
2021/09/08 22:35:58;;;;;;;16.25;11.77;;;;;17.40;100590.00;;;;12866639;22;20174;-77
2021/09/08 22:40:59;;;;;;;13.85;11.20;;;;;17.40;100582.00;;;;12866735;22;20189;-77
2021/09/08 22:46:01;;;;;;;13.63;10.40;;;;;17.50;100586.00;;;;12865174;22;20924;-77
2021/09/08 22:51:03;;;;;;;16.45;11.05;;;;;17.70;100588.00;;;;12867298;22;20193;-77
2021/09/08 22:56:04;;;;;;;16.07;11.33;;;;;17.80;100592.00;;;;12892666;22;20169;-78
2021/09/08 23:01:06;;;;;;;16.08;11.00;;;;;17.60;100574.00;;;;12844141;22;20184;-77
2021/09/08 23:06:10;;;;;;;14.55;11.27;;;;;17.60;100566.00;;;;12938649;22;20185;-77
2021/09/08 23:11:12;;;;;;;12.55;10.90;;;;;17.60;100565.00;;;;12868440;22;20178;-77
2021/09/08 23:16:13;;;;;;;13.50;10.75;;;;;17.50;100559.00;;;;12892607;22;20197;-78
2021/09/08 23:21:15;;;;;;;16.70;10.93;;;;;17.60;100556.00;;;;12868897;22;20866;-78
2021/09/08 23:26:18;;;;;;;13.50;10.68;;;;;17.60;100558.00;;;;12891477;22;20708;-78
2021/09/08 23:31:20;;;;;;;14.23;11.25;;;;;17.40;100551.00;;;;12891480;22;20479;-78
2021/09/08 23:36:22;;;;;;;13.70;10.83;;;;;17.40;100552.00;;;;12890500;22;20173;-77
2021/09/08 23:41:23;;;;;;;17.40;11.85;;;;;17.30;100546.00;;;;12892205;22;20181;-77
2021/09/08 23:46:24;;;;;;;15.40;11.02;;;;;17.20;100540.00;;;;12866162;22;20578;-77
2021/09/08 23:51:26;;;;;;;13.60;10.82;;;;;17.10;100527.00;;;;12912332;22;20430;-77
2021/09/08 23:56:27;;;;;;;13.33;10.87;;;;;17.20;100526.00;;;;12889477;22;20177;-77
